Latest Coastal Weather Observations for Cairns

IDQ60701

Issued at 5:32 pm EST Thursday 20 February 2020 (issued every 10 minutes, with the page automatically refreshed every 10 minutes)

About coastal observations | Map of coastal stations | Coastal observations for QLD | Marine services | Other Formats
Station Details ID: 031011 Name: CAIRNS AERO Lat: -16.87 Lon: 145.75 Height: 2.22 m
Data from the previous 72 hours. | See also: Recent months at Cairns
Date/Time
EST
Wind Sea
Height
m
Swell Vis
km
Cloud Weather Temp
°C
Press
hPa
Rain since
9am
mm
Dir  Spd
kts
Gust
kts
Height
m
Period
s
Dir
20/05:00pm NNE 6 9 - - - - 10 - - 31.5 1005.1 0.0
20/04:30pm NNE 7 10 - - - - 10 - - 32.3 1004.9 0.0
20/04:00pm NE 7 10 - - - - 10 - - 32.2 1004.9 0.0
20/03:30pm NNE 7 10 - - - - 10 - - 32.4 1004.8 0.0
20/03:00pm NNE 7 10 - - - - 10 - - 32.3 1004.7 0.0
20/02:30pm NNE 7 10 - - - - 10 - - 32.8 1005.1 0.0
20/02:00pm NNE 7 10 - - - - 10 - - 33.1 1005.2 0.0
20/01:30pm NE 8 10 - - - - 10 - - 33.3 1005.4 0.0
20/01:00pm NE 6 9 - - - - 10 - - 32.6 1005.8 0.0
20/12:30pm ENE 7 13 - - - - 10 - - 33.0 1006.3 0.0
20/12:00pm NE 6 8 - - - - 10 - - 33.1 1006.6 0.0
20/11:30am ENE 6 9 - - - - 10 - - 32.6 1007.1 0.0
20/11:00am NE 7 11 - - - - 10 - - 32.7 1007.3 0.0
20/10:30am NE 5 9 - - - - 10 - - 32.6 1007.5 0.0
20/10:00am ENE 3 5 - - - - 10 - - 32.6 1007.6 0.0
20/09:30am SE 3 5 - - - - 10 - - 31.3 1007.7 0.0
20/09:00am SE 3 5 - - - - 10 - - 31.1 1007.7 0.0
20/08:30am SE 4 6 - - - - 10 - - 30.2 1007.5 0.0
20/08:00am SSE 3 4 - - - - 10 - - 29.0 1007.4 0.0
20/07:30am WSW 1 2 - - - - 10 - - 28.1 1007.0 0.0
20/07:00am CALM 0 0 - - - - 10 - - 26.7 1006.7 0.0
20/06:30am SW 1 3 - - - - 10 - - 25.8 1005.9 0.0
20/06:00am SSE 3 4 - - - - 10 Mostly clear - 25.9 1005.6 0.0
20/05:30am CALM 0 2 - - - - 10 - - 25.8 1005.5 0.0
20/05:00am WSW 2 3 - - - - 10 - - 26.0 1005.4 0.0
20/04:31am SSE 2 3 - - - - 10 Partly cloudy - 26.2 1005.3 0.0
20/04:30am SSE 2 3 - - - - 10 Partly cloudy - 26.2 1005.3 0.0
20/04:01am W 1 5 - - - - 10 Partly cloudy - 27.0 1005.2 0.0
20/04:00am W 1 2 - - - - 10 Partly cloudy - 27.0 1005.2 0.0
20/03:30am WSW 3 5 - - - - 10 Partly cloudy - 26.8 1005.2 0.0
20/03:07am W 3 4 - - - - 10 Partly cloudy - 26.5 1005.5 0.0
20/03:00am W 3 4 - - - - 10 Cloudy - 26.5 1005.5 0.0
20/02:30am NNW 3 4 - - - - 10 Partly cloudy - 26.2 1005.7 0.0
20/02:28am NNW 3 4 - - - - 10 Partly cloudy - 26.1 1005.7 0.0
20/02:00am W 1 2 - - - - 10 Partly cloudy - 26.5 1005.9 0.0
20/01:30am SW 2 4 - - - - 10 Partly cloudy - 27.0 1006.5 0.0
20/01:00am SE 1 3 - - - - 10 - - 27.0 1006.6 0.0
20/12:30am CALM 0 0 - - - - 10 - - 26.9 1007.1 0.0
20/12:00am CALM 0 0 - - - - 10 Cloudy Thunderstorm 27.0 1007.6 0.0
 
Date/Time
EST
Wind Sea
Height
m
Swell Vis
km
Cloud Weather Temp
°C
Press
hPa
Rain since
9am
mm
Dir  Spd
kts
Gust
kts
Height
m
Period
s
Dir
19/11:30pm CALM 0 0 - - - - 10 Partly cloudy - 26.9 1007.7 0.0
19/11:00pm W 2 3 - - - - 10 Partly cloudy - 27.2 1007.7 0.0
19/10:30pm W 2 2 - - - - 10 - - 27.2 1007.3 0.0
19/10:00pm CALM 0 0 - - - - 10 - - 27.4 1006.9 0.0
19/09:30pm CALM 0 1 - - - - 10 - - 27.7 1006.7 0.0
19/09:00pm SSE 1 2 - - - - 10 Cloudy - 28.1 1006.5 0.0
19/08:30pm CALM 0 0 - - - - 10 - - 27.8 1006.4 0.0
19/08:00pm CALM 0 0 - - - - 10 - - 28.0 1006.1 0.0
19/07:30pm W 1 1 - - - - 10 - - 28.6 1005.6 0.0
19/07:00pm W 2 3 - - - - 10 - - 28.7 1005.1 0.0
19/06:30pm NNE 1 3 - - - - 10 - - 29.1 1005.1 0.0
19/06:00pm NE 3 5 - - - - 10 Partly cloudy - 29.5 1004.9 0.0
19/05:30pm NE 3 6 - - - - 10 - - 29.5 1004.6 0.0
19/05:00pm NE 4 5 - - - - 10 - - 29.8 1004.3 0.0
19/04:30pm NE 3 5 - - - - 10 - - 30.1 1004.1 0.0
19/04:00pm E 5 8 - - - - 10 - - 30.5 1003.8 0.0
19/03:30pm ENE 6 8 - - - - 10 - - 30.9 1004.0 0.0
19/03:00pm E 9 12 - - - - 10 Mostly clear - 31.9 1004.2 0.0
19/02:30pm ENE 8 12 - - - - 10 - - 31.7 1004.2 0.0
19/02:00pm NE 8 13 - - - - 10 - - 31.4 1004.7 0.0
19/01:30pm NNE 8 12 - - - - 10 Partly cloudy - 32.2 1005.1 0.0
19/01:00pm NE 8 11 - - - - 10 - - 32.1 1005.6 0.0
19/12:30pm NE 8 11 - - - - 10 - - 31.1 1006.2 0.0
19/12:00pm NE 5 8 - - - - 10 Cloudy - 31.7 1006.5 0.0
19/11:30am NE 4 8 - - - - 10 Partly cloudy - 31.6 1006.9 0.0
19/11:00am ESE 2 4 - - - - 10 - - 30.8 1007.5 0.0
19/10:30am SSW 3 6 - - - - 10 Partly cloudy - 30.1 1007.6 0.0
19/10:00am S 5 8 - - - - 10 - - 29.5 1007.6 0.0
19/09:30am SSE 5 7 - - - - 10 - - 29.1 1007.5 0.0
19/09:00am S 4 6 - - - - 10 Cloudy - 28.1 1007.5 0.0
19/08:30am WSW 1 3 - - - - 10 Partly cloudy - 27.8 1007.6 0.0
19/08:00am W 3 6 - - - - 10 - - 26.6 1007.7 0.0
19/07:30am WSW 1 4 - - - - 10 Partly cloudy - 26.8 1007.0 0.0
19/07:00am SE 5 9 - - - - 10 Partly cloudy - 26.0 1006.8 0.0
19/06:30am SSE 6 9 - - - - 10 Partly cloudy - 26.2 1006.7 0.0
19/06:00am SE 8 10 - - - - 10 Partly cloudy - 25.5 1006.2 0.0
19/05:30am SW 1 3 - - - - 10 Partly cloudy - 25.7 1005.8 0.0
19/05:00am CALM 0 0 - - - - 10 Partly cloudy - 25.9 1005.7 0.0
19/04:30am CALM 0 0 - - - - 10 - - 26.3 1005.2 0.0
19/04:00am CALM 0 2 - - - - 10 Partly cloudy - 26.5 1005.2 0.0
19/03:30am SSE 6 8 - - - - 10 Partly cloudy - 26.1 1005.3 0.0
19/03:00am SSE 5 8 - - - - 10 Cloudy - 26.4 1005.2 0.0
19/02:30am SE 6 9 - - - - 10 Partly cloudy - 26.5 1005.5 0.0
19/02:00am WNW 2 2 - - - - 10 Partly cloudy - 25.9 1006.0 0.0
19/01:30am SSE 2 4 - - - - 10 - - 26.3 1006.3 0.0
19/01:00am SSE 1 3 - - - - 10 - - 26.4 1006.2 0.0
19/12:30am W 2 2 - - - - 10 - - 26.2 1006.5 0.0
19/12:00am WNW 1 3 - - - - 10 - - 26.6 1006.8 0.0
 
Date/Time
EST
Wind Sea
Height
m
Swell Vis
km
Cloud Weather Temp
°C
Press
hPa
Rain since
9am
mm
Dir  Spd
kts
Gust
kts
Height
m
Period
s
Dir
18/11:30pm CALM 0 1 - - - - 10 - - 26.6 1007.3 0.0
18/11:00pm SSE 2 4 - - - - 10 - - 27.3 1007.5 0.0
18/10:30pm S 1 3 - - - - 10 - - 27.4 1007.4 0.0
18/10:00pm SSW 2 3 - - - - 10 - - 27.8 1007.0 0.0
18/09:30pm S 1 4 - - - - 10 - - 28.0 1006.3 0.0
18/09:00pm SSE 3 5 - - - - 10 Mostly clear - 27.8 1006.2 0.0
18/08:30pm SSE 2 3 - - - - 10 - - 28.4 1005.9 0.0
18/08:00pm SSE 5 7 - - - - 10 - - 28.4 1005.5 0.0
18/07:30pm S 2 4 - - - - 10 - - 28.7 1005.3 0.0
18/07:00pm SE 3 4 - - - - 10 - - 29.1 1005.4 0.0
18/06:30pm ESE 6 9 - - - - 10 - - 29.5 1005.2 0.0
18/06:00pm E 8 11 - - - - 10 Mostly clear - 30.0 1005.3 0.0
18/05:30pm E 8 11 - - - - 10 Partly cloudy - 30.6 1005.1 0.0
18/05:00pm E 9 11 - - - - 10 - - 30.6 1004.9 0.0
18/04:30pm ENE 10 13 - - - - 10 Partly cloudy - 31.1 1004.7 0.0
18/04:00pm ESE 9 14 - - - - 10 Partly cloudy - 33.1 1004.7 0.0
18/03:30pm E 10 14 - - - - 10 Partly cloudy - 32.1 1005.0 0.0
18/03:00pm ENE 12 15 - - - - 10 - - 33.7 1004.8 0.0
18/02:30pm ENE 11 15 - - - - 10 Partly cloudy - 34.4 1005.2 0.0
18/02:00pm NE 9 13 - - - - 10 - - 33.2 1005.8 0.0
18/01:30pm NE 9 13 - - - - 10 - - 34.0 1006.1 0.0
18/01:00pm ENE 7 11 - - - - 10 - - 32.3 1006.6 0.0
18/12:30pm NE 8 11 - - - - 10 Partly cloudy - 33.2 1007.0 0.0
18/12:00pm ENE 9 11 - - - - 10 Partly cloudy - 32.4 1007.4 0.0
18/11:30am NE 8 12 - - - - 10 Partly cloudy - 32.6 1007.7 0.0
18/11:00am E 4 8 - - - - 10 Partly cloudy - 33.3 1008.2 0.0
18/10:30am SSE 2 6 - - - - 10 - - 31.4 1008.3 0.0
18/10:00am E 3 6 - - - - 10 - - 30.8 1008.5 0.0
18/09:30am SE 3 4 - - - - 10 Partly cloudy - 29.9 1008.9 0.0
18/09:00am SE 5 7 - - - - 10 Mostly cloudy - 27.8 1008.9 1.2
18/08:30am SSE 3 4 - - - - 10 Partly cloudy - 26.9 1008.5 1.2
18/08:00am SSE 4 7 - - - - 10 Partly cloudy - 26.5 1008.4 1.2
18/07:30am SSE 5 9 - - - - 10 Partly cloudy - 26.1 1008.2 1.2
18/07:00am CALM 0 0 - - - - 10 - - 25.5 1007.9 1.2
18/06:30am SSE 1 3 - - - - 10 - - 25.4 1007.7 1.2
18/06:00am CALM 0 0 - - - - 10 - - 25.4 1007.4 1.2
18/05:30am CALM 0 2 - - - - 10 Partly cloudy - 25.6 1007.2 1.2
18/05:00am SSE 5 9 - - - - 10 Partly cloudy - 25.7 1006.9 1.2
18/04:30am CALM 0 2 - - - - 10 Partly cloudy - 25.5 1006.6 1.0
18/04:00am CALM 0 0 - - - - 10 Partly cloudy - 25.6 1006.6 1.0
18/03:30am NNW 1 3 - - - - 10 Partly cloudy - 26.2 1006.8 1.0
18/03:00am S 4 7 - - - - 10 Cloudy Showers 25.7 1006.7 1.0
18/02:30am ESE 5 8 - - - - 10 Partly cloudy - 27.2 1006.7 0.0
18/02:00am SE 2 7 - - - - 10 Partly cloudy - 27.4 1007.1 0.0
18/01:30am SSE 2 4 - - - - 10 - - 27.4 1007.4 0.0
18/01:00am SSE 5 8 - - - - 10 Partly cloudy - 27.0 1007.6 0.0
18/12:30am CALM 0 1 - - - - 10 Partly cloudy - 26.6 1007.9 0.0
18/12:00am ESE 8 11 - - - - 10 Cloudy - 26.9 1008.4 0.0
 
Date/Time
EST
Wind Sea
Height
m
Swell Vis
km
Cloud Weather Temp
°C
Press
hPa
Rain since
9am
mm
Dir  Spd
kts
Gust
kts
Height
m
Period
s
Dir
17/11:30pm SE 5 9 - - - - 10 - - 27.7 1008.5 0.0
17/11:00pm S 2 5 - - - - 10 Partly cloudy - 28.4 1008.3 0.0
17/10:30pm SSE 3 5 - - - - 10 Partly cloudy - 28.3 1008.4 0.0
17/10:00pm S 3 6 - - - - 10 Partly cloudy - 28.4 1008.3 0.0
17/09:30pm SSW 3 5 - - - - 10 - - 28.5 1008.1 0.0
17/09:00pm SSE 3 7 - - - - 10 - - 28.4 1008.2 0.0
17/08:30pm SSW 2 4 - - - - 10 - - 28.8 1008.3 0.0
17/08:00pm SSE 5 10 - - - - 10 Partly cloudy - 29.0 1007.8 0.0
17/07:30pm S 6 9 - - - - 10 Partly cloudy - 29.3 1007.4 0.0
17/07:00pm SE 9 12 - - - - 10 Partly cloudy - 29.5 1007.0 0.0
17/06:30pm SE 9 11 - - - - 10 Partly cloudy - 29.8 1006.3 0.0
17/06:00pm SE 10 13 - - - - 10 Mostly cloudy - 29.9 1006.0 0.0

Other formats

Comma delimited format used in spreadsheet applications
http://www.bom.gov.au/fwo/IDQ60701/IDQ60701.94287.axf

JavaScript Object Notation format (JSON) in row-major order
http://www.bom.gov.au/fwo/IDQ60701/IDQ60701.94287.json

Data quality

Most of these data are generated automatically and are frequently updated. Quality checks on data are not normally performed. It is possible for incorrect values to appear. Refer to information at About Latest Weather Observations and please check the disclaimer before using these data.